createdAt,value
2019-04-28T00:07:14.734Z,32.40
2019-04-28T00:10:10.977Z,32.40
2019-04-28T00:13:07.475Z,32.30
2019-04-28T00:16:05.233Z,32.40
2019-04-28T00:18:58.748Z,32.40
2019-04-28T00:21:57.027Z,32.40
2019-04-28T00:25:09.010Z,32.40
2019-04-28T00:28:02.321Z,32.40
2019-04-28T00:33:45.932Z,32.40
2019-04-28T00:36:39.060Z,32.40
2019-04-28T00:42:25.267Z,32.40
2019-04-28T00:45:18.162Z,32.40
2019-04-28T00:48:10.973Z,32.40
2019-04-28T00:51:03.386Z,32.40
2019-04-28T01:11:16.642Z,32.40
2019-04-28T01:14:11.322Z,32.40
2019-04-28T01:17:13.068Z,32.40
2019-04-28T01:20:07.454Z,32.40
2019-04-28T01:25:53.105Z,32.40
2019-04-28T01:34:42.763Z,32.40
2019-04-28T01:40:30.340Z,32.40
2019-04-28T01:46:12.631Z,32.40
2019-04-28T01:49:05.376Z,32.40
2019-04-28T01:54:50.148Z,32.40
2019-04-28T01:57:42.345Z,32.40
2019-04-28T02:03:27.569Z,32.50
2019-04-28T02:06:23.533Z,32.40
2019-04-28T02:09:19.441Z,32.50
2019-04-28T02:15:04.833Z,32.40
2019-04-28T02:23:45.327Z,32.40
2019-04-28T02:32:24.711Z,32.50
2019-04-28T02:35:21.154Z,32.50
2019-04-28T02:38:13.649Z,32.40
2019-04-28T02:41:07.347Z,32.40
2019-04-28T02:44:01.061Z,32.40
2019-04-28T02:46:54.987Z,32.30
2019-04-28T02:50:03.777Z,32.30
2019-04-28T02:53:12.219Z,32.30
2019-04-28T02:56:05.607Z,32.30
2019-04-28T02:59:00.835Z,32.30
2019-04-28T03:01:53.978Z,32.30
2019-04-28T03:04:50.812Z,32.30
2019-04-28T03:07:45.567Z,32.30
2019-04-28T03:10:41.030Z,32.30
2019-04-28T03:13:33.835Z,32.30
2019-04-28T03:16:26.617Z,32.30
2019-04-28T03:19:21.138Z,32.30
2019-04-28T03:22:13.465Z,32.30
2019-04-28T03:25:10.788Z,32.40
2019-04-28T03:28:12.194Z,32.40
2019-04-28T03:31:57.539Z,32.40
2019-04-28T03:34:24.402Z,32.40
2019-04-28T03:37:21.494Z,32.40
2019-04-28T03:40:12.327Z,32.40
2019-04-28T03:43:05.756Z,32.40
2019-04-28T03:46:03.755Z,32.40
2019-04-28T03:48:56.394Z,32.40
2019-04-28T03:51:50.629Z,32.40
2019-04-28T03:54:44.236Z,32.40
2019-04-28T03:57:37.396Z,32.40
2019-04-28T04:00:31.186Z,32.40
2019-04-28T04:03:24.745Z,32.40
2019-04-28T04:06:18.302Z,32.40
2019-04-28T04:09:11.571Z,32.40
2019-04-28T04:12:21.235Z,32.40
2019-04-28T04:15:41.260Z,32.50
2019-04-28T04:18:46.813Z,32.40
2019-04-28T04:21:40.937Z,32.50
2019-04-28T04:27:26.319Z,32.50
2019-04-28T04:30:20.800Z,32.50
2019-04-28T04:36:07.727Z,32.50
2019-04-28T04:39:02.212Z,32.60
2019-04-28T04:41:57.569Z,32.60
2019-04-28T04:50:35.993Z,32.60
2019-04-28T04:56:24.251Z,32.60
2019-04-28T04:59:20.254Z,32.60
2019-04-28T05:02:29.341Z,32.60
2019-04-28T05:05:26.461Z,32.60
2019-04-28T05:08:20.400Z,32.60
2019-04-28T05:11:15.556Z,32.60
2019-04-28T05:17:01.378Z,32.60
2019-04-28T05:22:52.315Z,32.60
2019-04-28T05:28:44.016Z,32.60
2019-04-28T05:31:34.212Z,32.60
2019-04-28T05:34:29.654Z,32.60
2019-04-28T05:37:23.768Z,32.60
2019-04-28T05:40:18.099Z,32.60
2019-04-28T05:49:21.931Z,32.60
2019-04-28T05:52:50.180Z,32.60
2019-04-28T05:56:05.049Z,32.60
2019-04-28T05:59:01.867Z,32.60
2019-04-28T06:08:10.000Z,32.70
2019-04-28T06:13:59.748Z,32.70
2019-04-28T06:22:34.836Z,32.70
2019-04-28T06:25:28.320Z,32.70
2019-04-28T06:28:23.208Z,32.70
2019-04-28T06:31:16.625Z,32.70
2019-04-28T06:42:44.610Z,32.70
2019-04-28T06:45:39.384Z,32.70
2019-04-28T06:48:33.767Z,32.70
2019-04-28T06:51:28.632Z,32.60
2019-04-28T06:54:21.217Z,32.60
2019-04-28T06:57:15.553Z,32.60
2019-04-28T07:05:52.235Z,32.70
2019-04-28T07:11:37.761Z,32.70
2019-04-28T07:17:22.485Z,32.70
2019-04-28T07:23:33.172Z,32.70
2019-04-28T07:26:27.015Z,32.70
2019-04-28T07:29:20.449Z,32.70
2019-04-28T07:32:14.674Z,32.70
2019-04-28T07:40:53.998Z,32.70
2019-04-28T07:43:49.862Z,32.70
2019-04-28T07:49:36.399Z,32.70
2019-04-28T07:55:33.087Z,32.70
2019-04-28T07:58:26.260Z,32.70
2019-04-28T08:01:21.646Z,32.70
2019-04-28T08:12:55.756Z,32.70
2019-04-28T08:15:50.311Z,32.80
2019-04-28T08:18:45.512Z,32.70
2019-04-28T08:21:38.013Z,32.70
2019-04-28T08:30:13.847Z,32.80
2019-04-28T08:33:29.419Z,32.80
2019-04-28T08:36:23.312Z,32.80
2019-04-28T08:39:18.770Z,32.80
2019-04-28T08:45:08.209Z,32.80
2019-04-28T08:48:04.029Z,32.80
2019-04-28T08:56:42.503Z,32.80
2019-04-28T08:59:37.944Z,32.80
2019-04-28T09:02:31.485Z,32.80
2019-04-28T09:05:25.909Z,32.80
2019-04-28T09:11:11.219Z,32.80
2019-04-28T09:14:04.575Z,32.80
2019-04-28T09:16:58.082Z,32.80
2019-04-28T09:22:43.171Z,32.80
2019-04-28T09:25:38.754Z,32.80
2019-04-28T09:31:25.707Z,32.80
2019-04-28T09:34:28.139Z,32.90
2019-04-28T09:37:14.911Z,32.90
2019-04-28T09:40:17.149Z,32.90
2019-04-28T09:43:31.383Z,32.90
2019-04-28T09:46:28.195Z,32.90
2019-04-28T09:49:22.375Z,32.90
2019-04-28T09:55:08.560Z,32.90
2019-04-28T10:00:55.679Z,32.90
2019-04-28T10:03:50.698Z,32.90
2019-04-28T10:06:46.170Z,32.90
2019-04-28T10:09:40.732Z,33.00
2019-04-28T10:12:33.535Z,33.00
2019-04-28T10:15:26.935Z,33.00
2019-04-28T10:18:19.872Z,32.90
2019-04-28T10:24:07.034Z,33.00
2019-04-28T10:27:01.817Z,33.00
2019-04-28T10:44:35.461Z,33.00
2019-04-28T10:50:21.888Z,33.10
2019-04-28T10:53:17.158Z,33.00
2019-04-28T10:59:06.924Z,33.00
2019-04-28T11:10:48.914Z,33.10
2019-04-28T11:13:44.525Z,33.10
2019-04-28T11:16:39.023Z,33.10
2019-04-28T11:19:32.819Z,33.10
2019-04-28T11:22:26.301Z,33.10
2019-04-28T11:25:19.829Z,33.10
2019-04-28T11:28:12.811Z,33.10
2019-04-28T11:31:06.877Z,33.10
2019-04-28T11:34:19.371Z,33.10
2019-04-28T11:37:16.127Z,33.10
2019-04-28T11:40:09.519Z,33.10
2019-04-28T11:43:03.044Z,33.10
2019-04-28T11:45:55.373Z,33.10
2019-04-28T11:48:48.742Z,33.10
2019-04-28T11:57:25.067Z,33.10
2019-04-28T12:00:32.553Z,33.10
2019-04-28T12:03:27.294Z,33.10
2019-04-28T12:06:20.776Z,33.20
2019-04-28T12:09:32.962Z,33.20
2019-04-28T12:12:51.470Z,33.20
2019-04-28T12:16:01.926Z,33.20
2019-04-28T12:22:15.424Z,33.20
2019-04-28T12:25:11.278Z,33.20
2019-04-28T12:30:59.830Z,33.20
2019-04-28T12:33:53.748Z,33.20
2019-04-28T12:36:48.428Z,33.20
2019-04-28T12:39:43.632Z,33.20
2019-04-28T12:42:37.904Z,33.20
2019-04-28T12:48:23.644Z,33.20
2019-04-28T12:54:11.084Z,33.20
2019-04-28T13:00:10.481Z,33.20
2019-04-28T13:03:24.471Z,33.20
2019-04-28T13:09:13.676Z,33.30
2019-04-28T13:14:59.821Z,33.30
2019-04-28T13:20:43.957Z,33.30
2019-04-28T13:23:36.986Z,33.30
2019-04-28T13:35:04.396Z,33.30
2019-04-28T13:40:50.336Z,33.40
2019-04-28T13:43:44.084Z,33.40
2019-04-28T13:49:30.167Z,33.40
2019-04-28T13:55:38.673Z,33.30
2019-04-28T13:58:35.235Z,33.20
2019-04-28T14:04:53.873Z,33.40
2019-04-28T14:07:46.411Z,33.40
2019-04-28T14:13:31.124Z,33.40
2019-04-28T14:16:24.335Z,33.40
2019-04-28T14:19:18.226Z,33.40
2019-04-28T14:25:01.625Z,33.40
2019-04-28T14:27:56.409Z,33.40
2019-04-28T14:33:40.657Z,33.30
2019-04-28T14:36:42.395Z,33.30
2019-04-28T14:48:10.263Z,33.30
2019-04-28T14:51:07.891Z,33.40
2019-04-28T14:54:02.739Z,33.40
2019-04-28T14:56:55.655Z,33.40
2019-04-28T14:59:48.042Z,33.40
2019-04-28T15:02:50.088Z,33.40
2019-04-28T15:05:55.471Z,33.40
2019-04-28T15:09:01.692Z,33.40
2019-04-28T15:12:02.409Z,33.40
2019-04-28T15:14:56.284Z,33.40
2019-04-28T15:23:33.661Z,33.40
2019-04-28T15:26:27.706Z,33.40
2019-04-28T15:32:13.844Z,33.40
2019-04-28T15:35:07.610Z,33.40
2019-04-28T15:40:55.559Z,33.50
2019-04-28T15:43:51.328Z,33.40
2019-04-28T15:46:46.104Z,33.50
2019-04-28T15:49:40.545Z,33.50
2019-04-28T15:52:34.436Z,33.50
2019-04-28T15:55:36.003Z,33.50
2019-04-28T16:01:34.175Z,33.50
2019-04-28T16:04:28.170Z,33.40
2019-04-28T16:07:25.259Z,33.50
2019-04-28T16:10:17.645Z,33.40
2019-04-28T16:16:03.505Z,33.50
2019-04-28T16:18:58.746Z,33.50
2019-04-28T16:21:53.034Z,33.50
2019-04-28T16:27:40.266Z,33.50
2019-04-28T16:30:33.028Z,33.50
2019-04-28T16:33:27.125Z,33.50
2019-04-28T16:36:20.443Z,33.50
2019-04-28T16:39:15.165Z,33.50
2019-04-28T16:42:11.606Z,33.50
2019-04-28T16:45:05.870Z,33.40
2019-04-28T16:48:00.393Z,33.40
2019-04-28T16:50:54.202Z,33.50
2019-04-28T16:53:48.623Z,33.40
2019-04-28T16:57:00.772Z,33.50
2019-04-28T17:00:00.254Z,33.50
2019-04-28T17:02:57.452Z,33.50
2019-04-28T17:05:50.239Z,33.40
2019-04-28T17:08:44.694Z,33.50
2019-04-28T17:11:37.311Z,33.50
2019-04-28T17:14:31.585Z,33.50
2019-04-28T17:17:25.260Z,33.50
2019-04-28T17:20:19.661Z,33.50
2019-04-28T17:23:13.565Z,33.50
2019-04-28T17:41:29.571Z,33.50
2019-04-28T17:44:21.750Z,33.60
2019-04-28T17:47:14.711Z,33.50
2019-04-28T17:50:07.924Z,33.50
2019-04-28T17:53:02.366Z,33.60
2019-04-28T17:55:56.662Z,33.60
2019-04-28T17:58:50.572Z,33.60
2019-04-28T18:02:01.986Z,33.60
2019-04-28T18:05:20.334Z,33.60
2019-04-28T18:08:21.139Z,33.60
2019-04-28T18:11:09.579Z,33.50
2019-04-28T18:14:04.077Z,33.60
2019-04-28T18:17:15.464Z,33.60
2019-04-28T18:20:10.558Z,33.60
2019-04-28T18:23:05.767Z,33.60
2019-04-28T18:26:00.664Z,33.60
2019-04-28T18:28:56.847Z,33.60
2019-04-28T18:32:27.445Z,33.60
2019-04-28T18:35:35.508Z,33.60
2019-04-28T18:38:37.061Z,33.60
2019-04-28T18:41:57.834Z,33.60
2019-04-28T18:44:51.670Z,33.60
2019-04-28T18:47:46.316Z,33.60
2019-04-28T18:50:40.883Z,33.60
2019-04-28T18:53:35.379Z,33.60
2019-04-28T18:56:28.759Z,33.60
2019-04-28T18:59:24.217Z,33.60
2019-04-28T19:02:31.262Z,33.60
2019-04-28T19:05:26.958Z,33.60
2019-04-28T19:08:33.288Z,33.60
2019-04-28T19:11:37.347Z,33.60
2019-04-28T19:14:34.641Z,33.60
2019-04-28T19:17:55.269Z,33.60
2019-04-28T19:20:48.253Z,33.60
2019-04-28T19:23:42.307Z,33.60
2019-04-28T19:26:36.217Z,33.60
2019-04-28T19:29:30.609Z,33.60
2019-04-28T19:32:23.321Z,33.60
2019-04-28T19:35:16.807Z,33.60
2019-04-28T19:38:09.586Z,33.60
2019-04-28T19:41:02.617Z,33.60
2019-04-28T19:43:55.599Z,33.60
2019-04-28T19:46:48.244Z,33.60
2019-04-28T19:49:41.737Z,33.60
2019-04-28T19:52:38.664Z,33.60
2019-04-28T19:55:33.852Z,33.60
2019-04-28T19:58:48.924Z,33.60
2019-04-28T20:01:42.662Z,33.60
2019-04-28T20:04:35.666Z,33.60
2019-04-28T20:07:28.610Z,33.60
2019-04-28T20:10:22.000Z,33.70
2019-04-28T20:13:15.226Z,33.70
2019-04-28T20:16:08.649Z,33.60
2019-04-28T20:19:01.993Z,33.70
2019-04-28T20:21:54.747Z,33.60
2019-04-28T20:24:49.097Z,33.70
2019-04-28T20:27:42.168Z,33.70
2019-04-28T20:30:34.598Z,33.70
2019-04-28T20:33:27.396Z,33.70
2019-04-28T20:36:25.538Z,33.70
2019-04-28T20:39:26.497Z,33.70
2019-04-28T20:42:43.361Z,33.70
2019-04-28T20:45:37.719Z,33.70
2019-04-28T20:48:32.499Z,33.70
2019-04-28T20:51:25.611Z,33.70
2019-04-28T20:54:20.405Z,33.70
2019-04-28T20:57:14.884Z,33.70
2019-04-28T21:00:08.438Z,33.70
2019-04-28T21:03:05.170Z,33.70
2019-04-28T21:06:01.084Z,33.70
2019-04-28T21:08:57.640Z,33.70
2019-04-28T21:11:52.965Z,33.70
2019-04-28T21:14:47.464Z,33.70
2019-04-28T21:17:43.507Z,33.70
2019-04-28T21:20:36.985Z,33.70
2019-04-28T21:23:31.793Z,33.70
2019-04-28T21:26:29.306Z,33.70
2019-04-28T21:29:25.245Z,33.70
2019-04-28T21:32:20.781Z,33.70
2019-04-28T21:35:17.038Z,33.70
2019-04-28T21:38:10.413Z,33.80
2019-04-28T21:41:03.122Z,33.70
2019-04-28T21:44:02.770Z,33.70
2019-04-28T21:47:00.764Z,33.70
2019-04-28T21:49:53.169Z,33.70
2019-04-28T21:52:47.308Z,33.70
2019-04-28T21:55:39.930Z,33.70
2019-04-28T21:58:33.710Z,33.70
2019-04-28T22:01:26.423Z,33.70
2019-04-28T22:04:20.861Z,33.70
2019-04-28T22:07:13.424Z,33.70
2019-04-28T22:10:06.505Z,33.70
2019-04-28T22:12:59.532Z,33.70
2019-04-28T22:15:53.343Z,33.70
2019-04-28T22:18:47.541Z,33.70
2019-04-28T22:21:42.140Z,33.70
2019-04-28T22:24:45.310Z,33.70
2019-04-28T22:27:42.299Z,33.70
2019-04-28T22:30:35.902Z,33.80
2019-04-28T22:33:30.215Z,33.70
2019-04-28T22:36:24.431Z,33.70
2019-04-28T22:39:18.173Z,33.70
2019-04-28T22:42:12.974Z,33.70
2019-04-28T22:45:07.266Z,33.70
2019-04-28T22:48:02.277Z,33.70
2019-04-28T22:50:57.500Z,33.70
2019-04-28T22:53:52.145Z,33.70
2019-04-28T22:56:48.918Z,33.70
2019-04-28T22:59:45.336Z,33.70
2019-04-28T23:02:39.884Z,33.70
2019-04-28T23:05:34.185Z,33.70
2019-04-28T23:08:28.020Z,33.70
2019-04-28T23:11:23.175Z,33.70
2019-04-28T23:14:16.864Z,33.70
2019-04-28T23:17:11.417Z,33.70
2019-04-28T23:20:04.897Z,33.70
2019-04-28T23:22:58.186Z,33.70
2019-04-28T23:25:50.475Z,33.70
2019-04-28T23:28:42.993Z,33.70
2019-04-28T23:31:35.475Z,33.70
2019-04-28T23:34:27.837Z,33.70
2019-04-28T23:37:20.332Z,33.70
2019-04-28T23:40:12.643Z,33.70
2019-04-28T23:43:09.214Z,33.70
2019-04-28T23:46:01.626Z,33.70
2019-04-28T23:48:54.011Z,33.70
2019-04-28T23:51:53.245Z,33.70
2019-04-28T23:54:48.987Z,33.70
2019-04-28T23:57:41.777Z,33.70
